Time;durP1;ratioP1;P1;durP2;ratioP2;P2;SDS_P1;SDS_P2;PMS_P1;PMS_P2;Temp;Humidity;BMP_temperature;BMP_pressure;BME280_temperature;BME280_humidity;BME280_pressure;Samples;Min_cycle;Max_cycle;Signal;HPM_P1;HPM_P2
2022/05/08 00:01:55;;;;;;;12.90;8.80;;;;;;;9.96;88.82;99295.63;4221204;28;20144;-74
2022/05/08 00:03:56;;;;;;;11.32;9.48;;;;;;;9.93;89.58;99293.56;4221165;27;20071;-74
2022/05/08 00:05:59;;;;;;;10.63;8.15;;;;;;;9.87;91.18;99295.81;4221403;28;20263;-74
2022/05/08 00:07:59;;;;;;;14.15;9.48;;;;;;;9.82;90.67;99294.09;4219969;28;20297;-74
2022/05/08 00:09:59;;;;;;;12.52;8.57;;;;;;;9.82;90.67;99296.03;4223503;27;20105;-74
2022/05/08 00:12:00;;;;;;;10.98;8.73;;;;;;;9.82;95.20;99298.81;4221822;28;20423;-74
2022/05/08 00:14:00;;;;;;;12.57;9.40;;;;;;;9.78;95.02;99289.63;4221472;27;20047;-74
2022/05/08 00:16:01;;;;;;;13.55;9.20;;;;;;;9.74;95.53;99297.81;4223096;27;20043;-74
2022/05/08 00:18:01;;;;;;;11.35;9.15;;;;;;;9.75;94.85;99295.84;4223411;27;20386;-74
2022/05/08 00:20:05;;;;;;;11.38;8.50;;;;;;;9.76;93.45;99297.44;4221632;27;20295;-74
2022/05/08 00:22:06;;;;;;;10.35;8.70;;;;;;;9.77;91.81;99290.78;4221901;27;20099;-74
2022/05/08 00:24:06;;;;;;;10.00;8.32;;;;;;;9.74;92.25;99300.56;4222115;27;20020;-74
2022/05/08 00:26:08;;;;;;;11.20;8.70;;;;;;;9.71;91.85;99289.44;4217424;27;20034;-74
2022/05/08 00:28:09;;;;;;;11.82;8.98;;;;;;;9.63;91.90;99290.38;4222477;28;20027;-74
2022/05/08 00:30:09;;;;;;;12.70;8.57;;;;;;;9.58;96.99;99292.22;4221814;28;20105;-74
2022/05/08 00:32:10;;;;;;;14.70;8.93;;;;;;;9.53;96.42;99286.19;4220710;27;20042;-74
2022/05/08 00:34:10;;;;;;;15.82;9.60;;;;;;;9.52;96.98;99296.41;4221533;28;20023;-74
2022/05/08 00:36:10;;;;;;;10.60;8.23;;;;;;;9.50;95.61;99293.19;4221780;27;20031;-74
2022/05/08 00:38:11;;;;;;;11.48;8.40;;;;;;;9.48;96.34;99289.19;4220940;27;20032;-74
2022/05/08 00:40:12;;;;;;;12.85;8.98;;;;;;;9.48;96.94;99295.50;4226217;27;20376;-74
2022/05/08 00:42:12;;;;;;;9.65;8.35;;;;;;;9.49;96.63;99288.81;4225794;27;20407;-74
2022/05/08 00:44:13;;;;;;;11.48;8.60;;;;;;;9.49;94.17;99291.59;4228769;27;20083;-73
2022/05/08 00:46:16;;;;;;;10.35;8.27;;;;;;;9.50;94.17;99295.16;4227336;27;20028;-74
2022/05/08 00:48:16;;;;;;;11.05;8.45;;;;;;;9.48;94.93;99286.41;4223258;27;20451;-74
2022/05/08 00:50:16;;;;;;;11.70;9.23;;;;;;;9.48;96.75;99292.75;4224284;27;20428;-74
2022/05/08 00:52:17;;;;;;;11.02;9.07;;;;;;;9.47;97.03;99293.09;4225267;27;20405;-74
2022/05/08 00:54:18;;;;;;;10.95;8.38;;;;;;;9.42;97.51;99288.59;4224425;27;20022;-74
2022/05/08 00:56:19;;;;;;;10.70;8.82;;;;;;;9.35;99.36;99284.84;4226272;27;20023;-74
2022/05/08 00:58:20;;;;;;;12.57;9.23;;;;;;;9.29;99.41;99279.56;4223212;27;20031;-74
2022/05/08 01:00:21;;;;;;;10.88;8.50;;;;;;;9.34;99.12;99291.50;4223798;27;20043;-74
2022/05/08 01:02:21;;;;;;;10.82;9.15;;;;;;;9.28;99.97;99285.44;4225204;27;20571;-74
2022/05/08 01:04:21;;;;;;;12.20;8.95;;;;;;;9.28;100.00;99290.97;4223582;27;20085;-73
2022/05/08 01:06:22;;;;;;;12.38;8.52;;;;;;;9.35;99.19;99290.34;4223896;27;20046;-74
2022/05/08 01:08:24;;;;;;;11.95;8.77;;;;;;;9.27;99.03;99301.22;4225455;27;20062;-74
2022/05/08 01:10:25;;;;;;;9.90;8.15;;;;;;;9.21;98.46;99302.59;4225368;27;20051;-74
2022/05/08 01:12:26;;;;;;;11.25;9.00;;;;;;;9.11;98.85;99302.28;4217993;27;20084;-74
2022/05/08 01:14:26;;;;;;;11.25;8.75;;;;;;;9.04;98.63;99291.84;4225662;27;20039;-74
2022/05/08 01:16:26;;;;;;;13.52;9.20;;;;;;;8.96;99.20;99299.09;4221405;27;20118;-74
2022/05/08 01:18:27;;;;;;;10.40;8.10;;;;;;;8.97;98.35;99303.47;4223431;27;20563;-74
2022/05/08 01:20:28;;;;;;;9.75;8.18;;;;;;;8.97;99.09;99303.47;4226773;27;20043;-74
2022/05/08 01:22:28;;;;;;;9.25;7.97;;;;;;;8.98;99.75;99305.06;4224789;27;20035;-74
2022/05/08 01:24:29;;;;;;;10.10;8.25;;;;;;;8.99;99.33;99317.72;4226407;27;20288;-74
2022/05/08 01:26:29;;;;;;;10.07;8.68;;;;;;;9.00;100.00;99311.03;4222580;27;20032;-74
2022/05/08 01:28:29;;;;;;;10.32;8.02;;;;;;;9.03;100.00;99308.75;4222968;27;20074;-74
2022/05/08 01:30:31;;;;;;;10.30;8.35;;;;;;;9.04;100.00;99316.69;4224267;27;20218;-74
2022/05/08 01:32:31;;;;;;;8.85;7.65;;;;;;;9.06;100.00;99316.31;4227326;27;20501;-74
2022/05/08 01:34:31;;;;;;;10.50;8.20;;;;;;;9.07;100.00;99318.72;4221664;27;20044;-74
2022/05/08 01:36:32;;;;;;;11.48;8.15;;;;;;;9.10;99.93;99319.97;4224190;27;20040;-74
2022/05/08 01:38:32;;;;;;;10.05;8.30;;;;;;;9.12;98.88;99318.50;4221913;27;20050;-73
2022/05/08 01:40:33;;;;;;;10.05;8.32;;;;;;;9.14;100.00;99324.47;4223248;27;20066;-74
2022/05/08 01:42:33;;;;;;;10.40;8.57;;;;;;;9.16;100.00;99326.88;4225084;27;20036;-74
2022/05/08 01:44:33;;;;;;;10.95;8.27;;;;;;;9.15;100.00;99317.78;4224825;27;20043;-74
2022/05/08 01:46:33;;;;;;;9.77;7.78;;;;;;;9.14;99.71;99316.19;4224997;27;20060;-74
2022/05/08 01:48:34;;;;;;;10.15;8.43;;;;;;;9.19;100.00;99318.72;4224158;27;20497;-74
2022/05/08 01:50:35;;;;;;;12.15;8.00;;;;;;;9.18;100.00;99325.38;4224413;27;20384;-74
2022/05/08 01:52:35;;;;;;;10.23;8.35;;;;;;;9.20;100.00;99320.34;4226274;27;20052;-73
2022/05/08 01:54:36;;;;;;;10.65;8.52;;;;;;;9.21;100.00;99321.13;4220179;27;20440;-74
2022/05/08 01:56:36;;;;;;;11.77;9.15;;;;;;;9.19;100.00;99318.72;4225307;27;20100;-74
2022/05/08 01:58:37;;;;;;;12.23;9.32;;;;;;;9.20;100.00;99314.00;4223027;27;20085;-74
2022/05/08 02:00:37;;;;;;;11.77;8.90;;;;;;;9.21;100.00;99321.13;4222748;27;20054;-74
2022/05/08 02:02:37;;;;;;;11.85;10.18;;;;;;;9.24;100.00;99320.44;4224994;27;20096;-74
2022/05/08 02:04:40;;;;;;;13.23;9.77;;;;;;;9.27;100.00;99322.50;4223257;27;20096;-74
2022/05/08 02:06:40;;;;;;;13.07;9.80;;;;;;;9.33;100.00;99325.81;4223662;27;20459;-74
2022/05/08 02:08:40;;;;;;;12.55;10.43;;;;;;;9.30;100.00;99327.31;4220417;27;20464;-74
2022/05/08 02:10:41;;;;;;;13.80;9.90;;;;;;;9.29;100.00;99325.72;4219236;27;20043;-74
2022/05/08 02:12:42;;;;;;;15.77;10.55;;;;;;;9.32;100.00;99324.22;4225827;27;20035;-74
2022/05/08 02:14:43;;;;;;;14.30;10.85;;;;;;;9.31;100.00;99326.16;4223002;27;20097;-74
2022/05/08 02:16:43;;;;;;;15.25;10.45;;;;;;;9.35;100.00;99329.84;4225093;27;20047;-74
2022/05/08 02:18:44;;;;;;;12.20;9.73;;;;;;;9.38;100.00;99331.91;4222274;27;20547;-73
2022/05/08 02:20:44;;;;;;;15.93;11.05;;;;;;;9.41;100.00;99319.34;4224010;27;20356;-74
2022/05/08 02:22:44;;;;;;;11.68;8.85;;;;;;;9.43;100.00;99320.63;4224470;27;20123;-74
2022/05/08 02:24:45;;;;;;;12.65;9.63;;;;;;;9.43;100.00;99319.78;4221815;27;20039;-74
2022/05/08 02:26:45;;;;;;;13.88;10.02;;;;;;;9.42;100.00;99326.47;4223565;27;20072;-74
2022/05/08 02:28:45;;;;;;;14.20;10.55;;;;;;;9.46;100.00;99338.44;4223929;27;20401;-74
2022/05/08 02:30:47;;;;;;;14.07;10.00;;;;;;;9.45;100.00;99325.78;4224332;27;20582;-74
2022/05/08 02:32:49;;;;;;;13.77;10.60;;;;;;;9.48;100.00;99333.38;4223329;27;20047;-74
2022/05/08 02:34:50;;;;;;;;;;;;;;;9.46;100.00;99330.97;4225432;27;20040;-74
2022/05/08 02:36:50;;;;;;;12.50;9.68;;;;;;;9.45;100.00;99328.56;4222652;27;20240;-74
2022/05/08 02:38:50;;;;;;;10.80;8.70;;;;;;;9.46;100.00;99336.50;4224431;27;20044;-74
2022/05/08 02:40:51;;;;;;;14.27;10.32;;;;;;;9.47;100.00;99332.56;4226210;27;20047;-74
2022/05/08 02:42:53;;;;;;;13.23;10.15;;;;;;;9.46;100.00;99336.50;4221743;27;20055;-74
2022/05/08 02:44:53;;;;;;;12.27;9.13;;;;;;;9.47;100.00;99334.53;4220537;27;20055;-74
2022/05/08 02:46:54;;;;;;;11.40;8.40;;;;;;;9.49;99.80;99323.94;4224752;27;20043;-74
2022/05/08 02:48:54;;;;;;;11.25;9.07;;;;;;;9.50;99.58;99333.81;4216571;27;20112;-74
2022/05/08 02:50:54;;;;;;;10.68;8.93;;;;;;;9.51;97.75;99332.66;4223156;27;20046;-74
2022/05/08 02:52:54;;;;;;;12.70;9.27;;;;;;;9.52;96.72;99335.09;4222141;27;20054;-74
2022/05/08 02:54:55;;;;;;;11.05;8.40;;;;;;;9.53;96.62;99339.47;4222708;27;20051;-74
2022/05/08 02:59:15;;;;;;;12.48;8.23;;;;;;;9.49;98.39;99334.97;4222152;27;20063;-74
2022/05/08 03:01:15;;;;;;;11.02;7.45;;;;;;;9.45;98.13;99339.59;4217559;27;20050;-73
2022/05/08 03:03:16;;;;;;;10.50;7.95;;;;;;;9.46;98.83;99342.00;4223833;27;20078;-74
2022/05/08 03:05:16;;;;;;;14.02;8.15;;;;;;;9.44;99.18;99344.31;4222839;27;20068;-74
2022/05/08 03:07:16;;;;;;;14.43;7.75;;;;;;;9.44;99.12;99346.28;4224917;27;20046;-74
2022/05/08 03:09:17;;;;;;;8.52;7.10;;;;;;;9.42;97.88;99343.84;4223136;27;20044;-74
2022/05/08 03:11:26;;;;;;;11.88;7.75;;;;;;;9.47;96.98;99349.13;4226480;27;20168;-73
2022/05/08 03:13:26;;;;;;;11.70;7.78;;;;;;;9.50;97.22;99345.66;4221146;27;20422;-74
2022/05/08 03:15:27;;;;;;;9.38;7.68;;;;;;;9.52;97.22;99351.66;4223067;27;20039;-74
2022/05/08 03:17:27;;;;;;;9.15;7.00;;;;;;;9.49;97.97;99344.06;4220689;27;20027;-74
2022/05/08 03:19:29;;;;;;;9.02;7.63;;;;;;;9.49;98.29;99354.31;4222010;27;20059;-74
2022/05/08 03:21:29;;;;;;;9.25;7.63;;;;;;;9.48;98.91;99361.78;4224440;27;20035;-74
2022/05/08 03:23:30;;;;;;;10.35;7.45;;;;;;;9.50;98.93;99358.69;4222361;27;20036;-74
2022/05/08 03:25:30;;;;;;;10.32;8.88;;;;;;;9.49;99.36;99363.41;4222745;27;20068;-74
2022/05/08 03:27:30;;;;;;;10.85;8.05;;;;;;;9.50;98.79;99367.78;4217912;27;20483;-74
2022/05/08 03:29:31;;;;;;;11.07;8.20;;;;;;;9.49;99.42;99368.94;4223356;27;20044;-74
2022/05/08 03:31:31;;;;;;;11.40;7.82;;;;;;;9.49;99.47;99362.59;4221222;27;20127;-74
2022/05/08 03:33:33;;;;;;;11.90;7.57;;;;;;;9.48;98.39;99361.78;4225176;27;20040;-74
2022/05/08 03:35:33;;;;;;;10.48;8.15;;;;;;;9.47;97.49;99357.44;4220011;27;20052;-74
2022/05/08 03:37:33;;;;;;;11.15;7.68;;;;;;;9.51;97.50;99366.63;4223687;27;20040;-73
2022/05/08 03:39:34;;;;;;;11.98;6.90;;;;;;;9.53;96.59;99364.31;4220774;27;20043;-74
2022/05/08 03:41:34;;;;;;;12.68;7.75;;;;;;;9.56;97.31;99371.91;4215760;28;20076;-73
2022/05/08 03:43:36;;;;;;;10.00;7.55;;;;;;;9.55;97.84;99369.50;4226406;27;20341;-74
2022/05/08 03:45:36;;;;;;;10.65;7.53;;;;;;;9.55;97.04;99367.53;4221746;27;20048;-74
2022/05/08 03:47:36;;;;;;;11.48;7.82;;;;;;;9.56;96.40;99366.38;4221277;27;20051;-74
2022/05/08 03:49:36;;;;;;;10.70;7.80;;;;;;;9.57;96.17;99367.97;4224896;27;20070;-74
2022/05/08 03:51:37;;;;;;;10.38;7.65;;;;;;;9.61;95.63;99373.63;4220258;27;20512;-74
2022/05/08 03:53:37;;;;;;;12.40;6.90;;;;;;;9.66;93.80;99373.38;4220599;27;20035;-74
2022/05/08 03:55:37;;;;;;;12.82;7.93;;;;;;;9.69;96.34;99366.34;4224301;28;20035;-74
2022/05/08 03:57:38;;;;;;;12.02;8.02;;;;;;;9.72;96.29;99368.41;4219504;28;20039;-74
2022/05/08 03:59:38;;;;;;;12.48;7.93;;;;;;;9.74;95.49;99368.84;4220782;27;20040;-74
2022/05/08 04:01:38;;;;;;;11.38;8.00;;;;;;;9.76;96.90;99372.06;4222030;28;20134;-74
2022/05/08 04:03:39;;;;;;;9.18;7.43;;;;;;;9.75;97.07;99368.50;4223118;27;20043;-74
2022/05/08 04:05:39;;;;;;;11.25;7.90;;;;;;;9.77;95.58;99370.94;4221179;28;20043;-73
2022/05/08 04:07:40;;;;;;;8.75;7.82;;;;;;;9.80;95.09;99376.56;4222098;27;20431;-74
2022/05/08 04:09:40;;;;;;;12.77;8.65;;;;;;;9.80;93.86;99373.78;4220162;27;20036;-74
2022/05/08 04:11:40;;;;;;;9.18;7.40;;;;;;;9.84;94.48;99376.66;4219957;28;20071;-74
2022/05/08 04:13:40;;;;;;;7.60;6.80;;;;;;;9.84;96.42;99379.41;4226210;27;20127;-74
2022/05/08 04:18:00;;;;;;;9.65;7.63;;;;;;;9.83;97.52;99380.56;4225064;27;20104;-73
2022/05/08 04:20:00;;;;;;;10.80;8.18;;;;;;;9.82;98.85;99384.50;4224803;27;20043;-74
2022/05/08 04:24:20;;;;;;;12.18;8.15;;;;;;;9.79;99.93;99391.53;4225116;27;20437;-73
2022/05/08 04:26:20;;;;;;;9.48;7.88;;;;;;;9.81;99.06;99382.88;4224624;27;20095;-74
2022/05/08 04:28:20;;;;;;;10.82;8.23;;;;;;;9.83;98.95;99388.84;4225182;27;20048;-74
2022/05/08 04:30:21;;;;;;;8.95;7.68;;;;;;;9.85;99.26;99392.09;4224842;27;20039;-74
2022/05/08 04:32:21;;;;;;;10.55;7.93;;;;;;;9.88;98.50;99398.88;4225963;27;20050;-74
2022/05/08 04:34:21;;;;;;;10.15;7.97;;;;;;;9.90;99.02;99393.78;4224950;27;20076;-74
2022/05/08 04:36:22;;;;;;;11.98;8.48;;;;;;;9.89;100.00;99390.22;4227750;27;20172;-73
2022/05/08 04:38:22;;;;;;;10.15;7.40;;;;;;;9.92;100.00;99395.03;4225585;27;20604;-74
2022/05/08 04:40:24;;;;;;;9.90;7.97;;;;;;;9.94;100.00;99392.75;4225810;27;20047;-74
2022/05/08 04:42:26;;;;;;;10.18;7.95;;;;;;;9.98;100.00;99401.94;4226616;27;20077;-74
2022/05/08 04:44:26;;;;;;;13.15;7.90;;;;;;;10.02;100.00;99405.63;4224346;27;20493;-74
2022/05/08 04:46:27;;;;;;;14.52;8.25;;;;;;;10.04;100.00;99408.84;4224841;27;20065;-74
2022/05/08 04:48:27;;;;;;;10.43;8.32;;;;;;;10.08;100.00;99404.19;4225807;27;20051;-74
2022/05/08 04:50:28;;;;;;;9.45;7.18;;;;;;;10.10;100.00;99406.63;4224736;27;20036;-74
2022/05/08 04:52:28;;;;;;;11.10;8.43;;;;;;;10.12;100.00;99409.84;4224882;27;20031;-74
2022/05/08 04:54:28;;;;;;;13.52;8.95;;;;;;;10.11;100.00;99402.69;4224967;27;20071;-74
2022/05/08 04:56:30;;;;;;;8.25;7.28;;;;;;;10.12;100.00;99407.06;4225499;27;20428;-74
2022/05/08 04:58:31;;;;;;;10.43;7.63;;;;;;;10.11;100.00;99402.69;4224419;27;20042;-74
2022/05/08 05:00:31;;;;;;;11.30;8.02;;;;;;;10.17;100.00;99411.53;4223854;27;20046;-74
2022/05/08 05:02:33;;;;;;;10.43;8.23;;;;;;;10.21;100.00;99407.72;4224345;27;20043;-74
2022/05/08 05:04:35;;;;;;;11.52;8.57;;;;;;;10.26;100.00;99415.81;4223691;27;20098;-74
2022/05/08 05:06:35;;;;;;;13.38;8.30;;;;;;;10.29;100.00;99409.56;4223902;27;20046;-74
2022/05/08 05:08:35;;;;;;;12.05;8.43;;;;;;;10.35;100.00;99412.88;4224594;27;20047;-74
2022/05/08 05:10:36;;;;;;;12.85;9.23;;;;;;;10.40;100.00;99418.13;4225460;27;20039;-74
2022/05/08 05:12:36;;;;;;;13.88;9.35;;;;;;;10.44;100.00;99421.81;4224977;27;20426;-74
2022/05/08 05:14:36;;;;;;;12.43;8.68;;;;;;;10.49;100.00;99418.78;4223108;27;20314;-74
2022/05/08 05:16:37;;;;;;;9.82;7.57;;;;;;;10.55;100.00;99420.13;4227495;27;20058;-74
2022/05/08 05:18:37;;;;;;;12.38;8.70;;;;;;;10.65;100.00;99433.44;4219826;27;20046;-74
2022/05/08 05:20:38;;;;;;;13.02;9.00;;;;;;;10.71;100.00;99433.19;4220826;27;20048;-74
2022/05/08 05:22:38;;;;;;;14.20;8.80;;;;;;;10.76;100.00;99447.56;4139581;27;20301;-73
2022/05/08 05:24:38;;;;;;;13.93;9.07;;;;;;;10.83;100.00;99435.84;4222857;27;20071;-74
2022/05/08 05:26:39;;;;;;;14.88;9.15;;;;;;;10.87;100.00;99439.53;4222557;27;20100;-73
2022/05/08 05:28:39;;;;;;;13.45;8.60;;;;;;;10.90;100.00;99436.84;4220798;28;20050;-74
2022/05/08 05:30:39;;;;;;;11.80;8.95;;;;;;;10.94;100.00;99440.53;4221920;28;20499;-74
2022/05/08 05:32:40;;;;;;;12.80;9.05;;;;;;;11.00;100.00;99443.81;4222042;28;20050;-74
2022/05/08 05:34:41;;;;;;;12.73;9.32;;;;;;;11.02;100.00;99443.47;4221610;28;20086;-74
2022/05/08 05:36:41;;;;;;;12.90;9.25;;;;;;;11.04;100.00;99439.19;4226966;27;20096;-74
2022/05/08 05:38:41;;;;;;;14.15;9.05;;;;;;;11.09;100.00;99444.47;4221197;27;20229;-74
2022/05/08 05:40:41;;;;;;;12.82;8.68;;;;;;;11.11;100.00;99444.09;4225069;27;20051;-74
2022/05/08 05:42:42;;;;;;;14.77;9.02;;;;;;;11.15;100.00;99445.78;4222114;27;20080;-74
2022/05/08 05:44:42;;;;;;;15.10;9.50;;;;;;;11.20;100.00;99453.03;4228782;27;20039;-74
2022/05/08 05:49:01;;;;;;;12.52;8.32;;;;;;;11.26;100.00;99459.91;4220480;27;20047;-74
2022/05/08 05:51:02;;;;;;;11.35;8.70;;;;;;;11.30;100.00;99452.47;4221679;27;20043;-74
2022/05/08 05:53:03;;;;;;;10.55;7.90;;;;;;;11.35;100.00;99454.19;4220752;27;20040;-73
2022/05/08 05:55:06;;;;;;;14.10;8.80;;;;;;;11.38;100.00;99445.13;4220267;27;20077;-74
2022/05/08 05:57:07;;;;;;;12.13;8.95;;;;;;;11.43;100.00;99461.50;4221221;28;20039;-73
2022/05/08 05:59:07;;;;;;;12.15;9.20;;;;;;;11.48;100.00;99455.66;4220468;27;20379;-74
2022/05/08 06:01:07;;;;;;;12.80;9.48;;;;;;;11.53;100.00;99450.66;4228156;27;20040;-74
2022/05/08 06:03:07;;;;;;;13.13;9.93;;;;;;;11.58;100.00;99460.63;4223892;27;20430;-74
2022/05/08 06:05:08;;;;;;;12.98;9.73;;;;;;;11.63;100.00;99463.16;4220065;28;20514;-74
2022/05/08 06:07:09;;;;;;;13.93;9.43;;;;;;;11.67;99.59;99464.03;4221259;28;20047;-74
2022/05/08 06:09:09;;;;;;;11.95;9.07;;;;;;;11.77;99.31;99466.25;4220230;28;20036;-74
2022/05/08 06:11:09;;;;;;;18.63;10.75;;;;;;;11.76;99.21;99470.19;4223536;27;20055;-74
2022/05/08 06:13:10;;;;;;;14.40;10.20;;;;;;;11.78;99.73;99456.75;4221025;28;20047;-74
2022/05/08 06:15:10;;;;;;;12.77;8.98;;;;;;;11.81;100.00;99461.59;4219726;28;20181;-73
2022/05/08 06:17:11;;;;;;;13.80;9.48;;;;;;;11.85;98.55;99464.47;4220773;27;20347;-74
2022/05/08 06:19:11;;;;;;;15.48;10.35;;;;;;;11.89;97.82;99459.78;4226794;27;20051;-74
2022/05/08 06:21:11;;;;;;;13.98;8.98;;;;;;;11.91;96.72;99462.19;4226802;27;20123;-74
2022/05/08 06:23:11;;;;;;;16.10;10.18;;;;;;;11.90;96.29;99466.13;4221262;28;20535;-74
2022/05/08 06:25:12;;;;;;;13.88;9.25;;;;;;;11.92;96.19;99470.19;4225276;27;20354;-74
2022/05/08 06:27:12;;;;;;;15.73;9.70;;;;;;;11.97;95.78;99467.09;4228473;27;20043;-74
2022/05/08 06:29:12;;;;;;;12.38;9.50;;;;;;;12.03;96.06;99470.41;4219720;28;20048;-74
2022/05/08 06:31:16;;;;;;;12.15;9.25;;;;;;;12.10;95.65;99476.09;4220517;27;20043;-74
2022/05/08 06:33:16;;;;;;;14.30;9.45;;;;;;;12.15;97.40;99472.22;4224285;27;20093;-74
2022/05/08 06:35:16;;;;;;;13.50;9.15;;;;;;;12.21;96.53;99471.56;4221574;27;20039;-73
2022/05/08 06:37:16;;;;;;;13.30;9.43;;;;;;;12.27;96.50;99474.88;4223307;27;20036;-74
2022/05/08 06:39:17;;;;;;;16.00;11.10;;;;;;;12.34;95.15;99478.59;4231686;27;20368;-74
2022/05/08 06:41:17;;;;;;;15.80;9.70;;;;;;;12.37;94.05;99468.72;4224235;27;20039;-74
2022/05/08 06:43:18;;;;;;;12.48;8.75;;;;;;;12.43;93.41;99474.78;4227710;27;20128;-74
2022/05/08 06:45:23;;;;;;;15.55;9.55;;;;;;;12.51;94.18;99479.31;4222407;27;20292;-74
2022/05/08 06:47:24;;;;;;;12.65;9.48;;;;;;;12.53;95.42;99472.22;4220636;27;20498;-74
2022/05/08 06:49:24;;;;;;;13.07;9.68;;;;;;;12.56;92.68;99479.81;4219438;28;20032;-74
2022/05/08 06:51:26;;;;;;;13.60;9.55;;;;;;;12.63;94.97;99477.16;4224953;27;20591;-74
2022/05/08 06:53:27;;;;;;;15.70;9.00;;;;;;;12.68;93.93;99484.41;4221666;27;20490;-74
2022/05/08 06:55:27;;;;;;;16.23;10.15;;;;;;;12.69;94.38;99474.91;4224135;27;20063;-74
2022/05/08 06:57:27;;;;;;;14.35;10.05;;;;;;;12.79;95.53;99484.59;4222133;27;20521;-74
2022/05/08 07:01:46;;;;;;;12.13;8.77;;;;;;;12.86;93.31;99479.97;4222285;27;20631;-74
2022/05/08 07:03:46;;;;;;;13.52;9.32;;;;;;;12.96;93.72;99491.66;4219629;28;20044;-74
2022/05/08 07:05:47;;;;;;;13.73;9.18;;;;;;;13.00;92.87;99486.97;4221114;27;20096;-74
2022/05/08 07:07:48;;;;;;;13.02;9.07;;;;;;;13.04;93.82;99485.03;4221688;27;20385;-74
2022/05/08 07:09:48;;;;;;;14.43;10.45;;;;;;;13.06;93.77;99496.59;4218767;27;20044;-74
2022/05/08 07:11:48;;;;;;;14.55;9.68;;;;;;;13.12;92.83;99490.34;4221046;27;20052;-74
2022/05/08 07:13:49;;;;;;;14.90;10.05;;;;;;;13.10;93.23;99489.94;4221158;27;20135;-74
2022/05/08 07:15:49;;;;;;;13.90;9.85;;;;;;;13.16;91.70;99485.69;4219221;27;20044;-74
2022/05/08 07:17:49;;;;;;;12.90;9.93;;;;;;;13.13;91.36;99483.63;4222959;27;20125;-74
2022/05/08 07:19:50;;;;;;;13.43;9.43;;;;;;;13.08;89.89;99489.50;4219363;28;20051;-73
2022/05/08 07:21:50;;;;;;;15.30;9.75;;;;;;;13.12;90.94;99490.34;4220177;28;20111;-73
2022/05/08 07:23:51;;;;;;;13.77;9.82;;;;;;;13.10;91.87;99489.13;4221895;27;20435;-74
2022/05/08 07:25:51;;;;;;;18.88;10.27;;;;;;;13.08;91.67;99489.50;4219916;28;20388;-74
2022/05/08 07:27:52;;;;;;;13.43;10.00;;;;;;;13.05;92.40;99490.22;4220034;28;20344;-74
2022/05/08 07:29:52;;;;;;;13.80;10.45;;;;;;;13.08;92.07;99494.25;4219164;28;20092;-74
2022/05/08 07:31:53;;;;;;;15.90;10.38;;;;;;;13.11;91.49;99499.06;4219792;27;20036;-74
2022/05/08 07:36:13;;;;;;;13.63;9.57;;;;;;;13.12;91.77;99498.69;4219481;28;20050;-74
2022/05/08 07:38:16;;;;;;;13.20;9.35;;;;;;;13.14;92.23;99492.75;4225310;27;20016;-74
2022/05/08 07:40:16;;;;;;;14.20;10.50;;;;;;;13.18;91.59;99499.19;4228661;27;20089;-74
2022/05/08 07:42:16;;;;;;;13.98;9.63;;;;;;;13.19;91.32;99498.03;4217805;28;20383;-74
2022/05/08 07:44:17;;;;;;;13.00;9.52;;;;;;;13.23;91.80;99503.66;4221285;27;20098;-74
2022/05/08 07:46:18;;;;;;;16.05;9.48;;;;;;;13.21;89.85;99504.84;4221513;27;20852;-74
2022/05/08 07:48:18;;;;;;;15.32;10.13;;;;;;;13.17;89.75;99512.28;4227008;27;20573;-74
2022/05/08 07:50:18;;;;;;;13.55;9.65;;;;;;;13.17;91.56;99505.94;4219332;28;20070;-74
2022/05/08 07:52:19;;;;;;;14.07;9.70;;;;;;;13.16;90.00;99509.88;4219660;28;20445;-74
2022/05/08 07:54:19;;;;;;;12.60;9.70;;;;;;;13.11;89.93;99513.75;4224342;27;20035;-74
2022/05/08 07:56:19;;;;;;;17.00;10.43;;;;;;;13.09;92.06;99506.97;4219691;27;20267;-74
2022/05/08 07:58:24;;;;;;;15.43;10.02;;;;;;;13.08;90.95;99510.94;4220735;28;21428;-74
2022/05/08 08:00:26;;;;;;;13.07;10.43;;;;;;;13.08;90.39;99520.06;4223760;28;20039;-73
2022/05/08 08:02:26;;;;;;;14.73;10.52;;;;;;;13.06;89.54;99519.63;4220636;28;20214;-74
2022/05/08 08:04:26;;;;;;;14.68;10.10;;;;;;;13.06;89.95;99516.03;4221359;28;20036;-74
2022/05/08 08:06:27;;;;;;;15.32;10.82;;;;;;;13.01;88.71;99522.72;4219995;28;20043;-74
2022/05/08 08:08:28;;;;;;;13.40;10.10;;;;;;;12.99;88.82;99518.69;4218624;28;20027;-74
2022/05/08 08:10:29;;;;;;;12.63;9.60;;;;;;;13.01;89.11;99519.94;4225071;27;20035;-74
2022/05/08 08:12:31;;;;;;;13.57;10.13;;;;;;;12.98;90.46;99526.22;4225911;28;20036;-74
2022/05/08 08:14:31;;;;;;;13.55;10.23;;;;;;;12.97;88.23;99526.59;4219870;28;20032;-74
2022/05/08 08:16:31;;;;;;;14.38;11.18;;;;;;;12.92;87.26;99530.47;4219387;28;20035;-74
2022/05/08 08:18:32;;;;;;;17.13;10.77;;;;;;;12.85;88.62;99519.22;4218668;28;20063;-74
2022/05/08 08:20:32;;;;;;;15.32;10.95;;;;;;;12.86;88.76;99527.19;4219852;28;20502;-74
2022/05/08 08:22:34;;;;;;;14.98;10.68;;;;;;;12.89;89.46;99529.22;4220381;28;20727;-74
2022/05/08 08:24:34;;;;;;;14.75;10.20;;;;;;;12.89;88.92;99536.75;4219769;28;20484;-74
2022/05/08 08:26:37;;;;;;;13.82;10.93;;;;;;;12.93;89.29;99532.88;4218853;27;20472;-74
2022/05/08 08:28:37;;;;;;;14.73;10.88;;;;;;;13.02;89.64;99540.97;4217478;28;20048;-74
2022/05/08 08:30:38;;;;;;;14.68;10.88;;;;;;;13.04;89.26;99540.59;4219227;28;20414;-74
2022/05/08 08:32:39;;;;;;;13.98;10.30;;;;;;;13.06;88.56;99541.84;4225433;28;20085;-74
2022/05/08 08:34:39;;;;;;;15.02;10.00;;;;;;;13.12;87.42;99539.56;4219776;28;20051;-74
2022/05/08 08:36:39;;;;;;;13.70;10.00;;;;;;;13.16;88.38;99537.69;4219014;28;20039;-74
2022/05/08 08:38:40;;;;;;;15.27;10.18;;;;;;;13.25;86.67;99549.38;4218807;28;20527;-74
2022/05/08 08:40:42;;;;;;;13.57;9.32;;;;;;;13.31;86.92;99544.28;4219579;28;20063;-74
2022/05/08 08:42:43;;;;;;;16.13;10.50;;;;;;;13.41;85.89;99552.84;4228243;28;20061;-74
2022/05/08 08:49:25;;;;;;;14.07;10.05;;;;;;;13.42;83.55;99551.66;4223529;28;20054;-74
2022/05/08 08:51:26;;;;;;;12.77;9.35;;;;;;;13.43;83.41;99555.25;4218715;28;20254;-74
2022/05/08 08:53:27;;;;;;;14.07;10.20;;;;;;;13.48;85.54;99546.56;4230073;27;20081;-74
2022/05/08 08:55:28;;;;;;;14.40;10.48;;;;;;;13.53;84.97;99554.63;4224661;28;20043;-74
2022/05/08 08:57:28;;;;;;;13.98;9.75;;;;;;;13.61;85.57;99555.53;4222429;28;20079;-74
2022/05/08 08:59:29;;;;;;;14.80;10.27;;;;;;;13.55;84.73;99557.00;4231438;27;20458;-74
2022/05/08 09:01:40;;;;;;;13.82;9.95;;;;;;;13.53;84.31;99562.94;4230823;27;20042;-74
2022/05/08 09:03:40;;;;;;;16.60;10.75;;;;;;;13.49;84.74;99565.69;4223669;27;20829;-74
2022/05/08 09:05:41;;;;;;;15.18;10.05;;;;;;;13.43;85.30;99567.16;4221838;28;20128;-74
2022/05/08 09:07:49;;;;;;;19.45;11.48;;;;;;;13.38;84.06;99569.44;4222277;28;20406;-74
2022/05/08 09:09:50;;;;;;;14.32;10.60;;;;;;;13.42;85.52;99567.53;4220057;27;20075;-74
2022/05/08 09:11:53;;;;;;;14.90;10.52;;;;;;;13.46;85.53;99569.19;4222987;27;20036;-73
2022/05/08 09:13:54;;;;;;;13.55;10.23;;;;;;;13.51;85.75;99570.88;4222468;27;20051;-74
2022/05/08 09:16:06;;;;;;;14.52;10.43;;;;;;;13.56;84.07;99572.53;4224875;27;20043;-74
2022/05/08 09:18:09;;;;;;;16.35;11.02;;;;;;;13.57;84.41;99565.78;4223845;27;20040;-74
2022/05/08 09:20:26;;;;;;;15.40;11.23;;;;;;;13.52;82.68;99568.91;4221031;27;20142;-74
2022/05/08 09:22:27;;;;;;;14.40;10.93;;;;;;;13.56;84.15;99562.19;4221827;27;20049;-74
2022/05/08 09:24:28;;;;;;;17.55;10.60;;;;;;;13.62;84.00;99568.25;4221639;28;20138;-74
2022/05/08 09:26:28;;;;;;;14.98;10.10;;;;;;;13.65;83.31;99573.91;4225479;27;20043;-74
2022/05/08 09:28:37;;;;;;;14.07;9.75;;;;;;;13.69;82.85;99571.97;4227114;27;20287;-74
2022/05/08 09:30:56;;;;;;;12.25;9.95;;;;;;;13.76;82.89;99568.50;4224518;27;20079;-74
2022/05/08 09:32:56;;;;;;;15.60;11.52;;;;;;;13.77;84.19;99575.66;4221082;27;20532;-74
2022/05/08 09:34:58;;;;;;;16.90;11.23;;;;;;;13.81;84.28;99576.50;4221001;28;20036;-74
2022/05/08 09:37:08;;;;;;;14.15;9.85;;;;;;;13.89;83.87;99578.22;4222004;27;20048;-74
2022/05/08 09:39:08;;;;;;;16.15;11.70;;;;;;;13.92;84.46;99568.34;4227316;27;20364;-73
2022/05/08 09:41:09;;;;;;;15.38;10.75;;;;;;;13.97;85.68;99573.59;4221922;28;20507;-74
2022/05/08 09:43:40;;;;;;;13.82;9.80;;;;;;;13.98;82.33;99576.00;4221870;27;20044;-74